Oakville, Canada
Current Conditions -  °F | °C
As of 3:00 AM on Monday 24 Nov 2014 (Local Time) from CYYZ Reporting Station
Light Rain Light Rain  
Wind Chill: 40°   Ceiling: 400
Heat Index: 46°   Visibility: 6mi
Dew Point: 45°   Wind: 15mph
Humidity: 93%   Direction: 100°E
Pressure: 29.31"   Gusts: 23mph
Location:  43.47°N, 79.69°W
Report Text: CYYZ 240800Z 10013G20KT 6SM -RA BR BKN004 OVC010 08/07 A2931 RMK SF5SF3 PRESFR SLP929
Loading
Personal Weather Stations






























Interactive Weather Map New forecast layout! Learn more

10-Day Weather Forecast

Advertisements
Track Severe Weather on mobile